Time;durP1;ratioP1;P1;durP2;ratioP2;P2;SDS_P1;SDS_P2;PMS_P1;PMS_P2;Temp;Humidity;BMP_temperature;BMP_pressure;BME280_temperature;BME280_humidity;BME280_pressure;Samples;Min_cycle;Max_cycle;Signal;HPM_P1;HPM_P2
2021/11/03 00:03:03;;;;;;;;;;;5.40;99.90;;;;;;8347749;28;19967;-72
2021/11/03 00:07:05;;;;;;;;;;;5.40;99.90;;;;;;8349946;28;19921;-71
2021/11/03 00:11:06;;;;;;;;;;;5.40;99.90;;;;;;8352691;28;19932;-71
2021/11/03 00:15:08;;;;;;;;;;;5.30;99.90;;;;;;8345381;28;19932;-74
2021/11/03 00:19:10;;;;;;;;;;;5.30;99.90;;;;;;8346242;28;19964;-71
2021/11/03 00:23:12;;;;;;;;;;;5.30;99.90;;;;;;8343461;28;20364;-72
2021/11/03 00:27:14;;;;;;;;;;;5.40;99.90;;;;;;8354697;28;20373;-72
2021/11/03 00:31:15;;;;;;;;;;;5.40;99.90;;;;;;8342882;28;19921;-72
2021/11/03 00:35:17;;;;;;;;;;;5.40;99.90;;;;;;8361267;28;20778;-72
2021/11/03 00:39:22;;;;;;;;;;;5.50;99.90;;;;;;8351257;28;20228;-72
2021/11/03 00:43:25;;;;;;;;;;;5.70;99.90;;;;;;8353670;28;19920;-71
2021/11/03 00:47:26;;;;;;;;;;;5.70;99.90;;;;;;8356666;28;19924;-72
2021/11/03 00:51:29;;;;;;;;;;;5.80;99.90;;;;;;8346242;28;19929;-72
2021/11/03 00:55:31;;;;;;;;;;;5.70;99.90;;;;;;8355756;28;19928;-73
2021/11/03 00:59:33;;;;;;;;;;;5.70;99.90;;;;;;8354541;28;19975;-72
2021/11/03 01:03:35;;;;;;;;;;;5.70;99.90;;;;;;8349572;28;19921;-72
2021/11/03 01:07:37;;;;;;;;;;;5.70;99.90;;;;;;8352705;28;20000;-72
2021/11/03 01:11:38;;;;;;;;;;;5.80;99.90;;;;;;8370528;28;19974;-72
2021/11/03 01:15:40;;;;;;;;;;;5.80;99.90;;;;;;8354612;28;19951;-71
2021/11/03 01:19:42;;;;;;;;;;;5.80;99.90;;;;;;8356013;28;19993;-71
2021/11/03 01:23:44;;;;;;;;;;;5.70;99.90;;;;;;8349789;28;20272;-71
2021/11/03 01:27:45;;;;;;;;;;;5.70;99.90;;;;;;8359711;28;19921;-72
2021/11/03 01:31:47;;;;;;;;;;;5.80;99.90;;;;;;8360760;28;19987;-72
2021/11/03 01:35:49;;;;;;;;;;;5.80;99.90;;;;;;8359896;28;19966;-72
2021/11/03 01:39:51;;;;;;;;;;;5.80;99.90;;;;;;8358114;28;19928;-71
2021/11/03 01:44:02;;;;;;;;;;;5.80;99.90;;;;;;8360813;28;19921;-72
2021/11/03 01:48:05;;;;;;;;;;;5.70;99.90;;;;;;8356646;28;19928;-72
2021/11/03 01:57:13;;;;;;;;;;;5.60;99.90;;;;;;8358445;28;19916;-72
2021/11/03 02:01:15;;;;;;;;;;;5.50;99.90;;;;;;8353481;28;19951;-72
2021/11/03 02:05:17;;;;;;;;;;;5.50;99.90;;;;;;8363610;28;19924;-71
2021/11/03 02:09:19;;;;;;;;;;;5.50;99.90;;;;;;8354832;28;19928;-72
2021/11/03 02:13:23;;;;;;;;;;;5.50;99.90;;;;;;8352345;28;19920;-73
2021/11/03 02:17:25;;;;;;;;;;;5.50;99.90;;;;;;8355984;28;20019;-72
2021/11/03 02:21:31;;;;;;;;;;;5.50;99.90;;;;;;8375674;28;20343;-72
2021/11/03 02:25:46;;;;;;;;;;;5.50;99.90;;;;;;8356711;28;19932;-72
2021/11/03 02:29:48;;;;;;;;;;;5.50;99.90;;;;;;8356139;28;19925;-72
2021/11/03 02:33:49;;;;;;;;;;;5.40;99.90;;;;;;8356997;28;19921;-72
2021/11/03 02:37:52;;;;;;;;;;;5.40;99.90;;;;;;8355722;28;19920;-72
2021/11/03 02:41:54;;;;;;;;;;;5.40;99.90;;;;;;8355417;28;20364;-72
2021/11/03 02:45:57;;;;;;;;;;;5.40;99.90;;;;;;8386837;28;19920;-72
2021/11/03 02:49:58;;;;;;;;;;;5.30;99.90;;;;;;8355381;28;20336;-72
2021/11/03 02:54:04;;;;;;;;;;;5.30;99.90;;;;;;8362663;28;19971;-71
2021/11/03 02:58:06;;;;;;;;;;;5.30;99.90;;;;;;8358843;28;19931;-72
2021/11/03 03:02:09;;;;;;;;;;;5.30;99.90;;;;;;8367643;28;19925;-72
2021/11/03 03:06:13;;;;;;;;;;;5.20;99.90;;;;;;8358966;28;20322;-72
2021/11/03 03:10:15;;;;;;;;;;;5.20;99.90;;;;;;8355718;28;19921;-72
2021/11/03 03:14:18;;;;;;;;;;;5.10;99.90;;;;;;8355878;28;20421;-72
2021/11/03 03:18:19;;;;;;;;;;;5.10;99.90;;;;;;8359366;28;19982;-72
2021/11/03 03:22:21;;;;;;;;;;;5.10;99.90;;;;;;8347492;28;19921;-72
2021/11/03 03:26:23;;;;;;;;;;;5.00;99.90;;;;;;8359305;28;19920;-72
2021/11/03 03:30:25;;;;;;;;;;;5.00;99.90;;;;;;8363862;28;20368;-72
2021/11/03 03:34:28;;;;;;;;;;;4.90;99.90;;;;;;8345834;28;19920;-71
2021/11/03 03:38:29;;;;;;;;;;;4.90;99.90;;;;;;8354578;28;19932;-72
2021/11/03 03:42:46;;;;;;;;;;;4.80;99.90;;;;;;8350058;28;19928;-71
2021/11/03 03:46:48;;;;;;;;;;;4.80;99.90;;;;;;8357786;28;19924;-72
2021/11/03 03:50:50;;;;;;;;;;;4.80;99.90;;;;;;8350675;28;19921;-74
2021/11/03 03:54:52;;;;;;;;;;;4.80;99.90;;;;;;8363145;28;20390;-72
2021/11/03 03:58:54;;;;;;;;;;;4.70;99.90;;;;;;8357089;28;19929;-72
2021/11/03 04:02:55;;;;;;;;;;;4.70;99.90;;;;;;8354631;28;20320;-72
2021/11/03 04:06:57;;;;;;;;;;;4.60;99.90;;;;;;8355662;28;20034;-72
2021/11/03 04:10:59;;;;;;;;;;;4.70;99.90;;;;;;8373640;28;19929;-73
2021/11/03 04:15:00;;;;;;;;;;;4.80;99.90;;;;;;8354014;28;20284;-72
2021/11/03 04:19:03;;;;;;;;;;;4.90;99.90;;;;;;8358799;28;19920;-71
2021/11/03 04:23:04;;;;;;;;;;;4.90;99.90;;;;;;8354081;28;19929;-71
2021/11/03 04:27:06;;;;;;;;;;;4.90;99.90;;;;;;8363427;28;20376;-72
2021/11/03 04:31:08;;;;;;;;;;;5.00;99.90;;;;;;8354241;28;19953;-72
2021/11/03 04:35:10;;;;;;;;;;;5.00;99.90;;;;;;8354786;28;20048;-72
2021/11/03 04:39:12;;;;;;;;;;;5.10;99.90;;;;;;8359050;28;20284;-72
2021/11/03 04:43:14;;;;;;;;;;;5.10;99.90;;;;;;8359429;28;20369;-72
2021/11/03 04:47:16;;;;;;;;;;;5.10;99.90;;;;;;8388798;28;19931;-72
2021/11/03 04:51:18;;;;;;;;;;;5.20;99.90;;;;;;8369370;28;19932;-72
2021/11/03 04:55:21;;;;;;;;;;;5.20;99.90;;;;;;8375596;28;19928;-72
2021/11/03 04:59:25;;;;;;;;;;;5.20;99.90;;;;;;8377149;28;19947;-72
2021/11/03 05:03:27;;;;;;;;;;;5.20;99.90;;;;;;8359622;28;19921;-72
2021/11/03 05:07:29;;;;;;;;;;;5.10;99.90;;;;;;8364056;28;19986;-72
2021/11/03 05:11:30;;;;;;;;;;;5.10;99.90;;;;;;8363994;28;19921;-72
2021/11/03 05:15:33;;;;;;;;;;;5.00;99.90;;;;;;8362244;28;19935;-72
2021/11/03 05:19:34;;;;;;;;;;;5.00;99.90;;;;;;8350404;28;20324;-72
2021/11/03 05:23:36;;;;;;;;;;;5.00;99.90;;;;;;8352369;28;19924;-72
2021/11/03 05:27:38;;;;;;;;;;;5.00;99.90;;;;;;8361705;28;19928;-72
2021/11/03 05:31:39;;;;;;;;;;;5.00;99.90;;;;;;8392281;28;19928;-72
2021/11/03 05:35:41;;;;;;;;;;;5.00;99.90;;;;;;8365439;28;20334;-71
2021/11/03 05:39:43;;;;;;;;;;;5.00;99.90;;;;;;8368670;28;19974;-71
2021/11/03 05:43:45;;;;;;;;;;;5.00;99.90;;;;;;8364925;28;19924;-72
2021/11/03 05:47:47;;;;;;;;;;;5.00;99.90;;;;;;8361639;28;20233;-72
2021/11/03 05:51:50;;;;;;;;;;;4.90;99.90;;;;;;8367661;28;19951;-72
2021/11/03 05:55:52;;;;;;;;;;;4.90;99.90;;;;;;8393529;28;19932;-72
2021/11/03 05:59:54;;;;;;;;;;;4.80;99.90;;;;;;8356296;28;19920;-71
2021/11/03 06:03:56;;;;;;;;;;;4.80;99.90;;;;;;8351448;28;19920;-72
2021/11/03 06:08:03;;;;;;;;;;;4.70;99.90;;;;;;8370492;28;19924;-71
2021/11/03 06:12:05;;;;;;;;;;;4.60;99.90;;;;;;8360613;28;19921;-72
2021/11/03 06:16:06;;;;;;;;;;;4.60;99.90;;;;;;8386904;28;19921;-71
2021/11/03 06:20:09;;;;;;;;;;;4.60;99.90;;;;;;8362238;28;20437;-71
2021/11/03 06:24:10;;;;;;;;;;;4.50;99.90;;;;;;8362213;28;19920;-71
2021/11/03 06:28:12;;;;;;;;;;;4.50;99.90;;;;;;8358023;28;19925;-71
2021/11/03 06:32:14;;;;;;;;;;;4.50;99.90;;;;;;8353418;28;20332;-72
2021/11/03 06:36:15;;;;;;;;;;;4.50;99.90;;;;;;8358293;28;19920;-72
2021/11/03 06:40:19;;;;;;;;;;;4.50;99.90;;;;;;8392393;28;19920;-71
2021/11/03 06:44:21;;;;;;;;;;;4.40;99.90;;;;;;8361452;28;19920;-71
2021/11/03 06:48:22;;;;;;;;;;;4.40;99.90;;;;;;8395928;28;19924;-71
2021/11/03 06:52:25;;;;;;;;;;;4.40;99.90;;;;;;8365215;28;19943;-71
2021/11/03 06:56:27;;;;;;;;;;;4.40;99.90;;;;;;8363371;28;19990;-72
2021/11/03 07:00:31;;;;;;;;;;;4.40;99.90;;;;;;8360969;28;19925;-72
2021/11/03 07:04:33;;;;;;;;;;;4.40;99.90;;;;;;8367554;28;19975;-71
2021/11/03 07:08:35;;;;;;;;;;;4.40;99.90;;;;;;8361276;28;19974;-72
2021/11/03 07:12:36;;;;;;;;;;;4.50;99.90;;;;;;8363744;28;19920;-72
2021/11/03 07:16:38;;;;;;;;;;;4.50;99.90;;;;;;8355040;28;20391;-72
2021/11/03 07:20:45;;;;;;;;;;;4.50;99.90;;;;;;8339978;28;19920;-73
2021/11/03 07:24:47;;;;;;;;;;;4.50;99.90;;;;;;8357976;28;20376;-71
2021/11/03 07:28:48;;;;;;;;;;;4.50;99.90;;;;;;8359615;28;20136;-71
2021/11/03 07:32:50;;;;;;;;;;;4.50;99.90;;;;;;8375174;28;19927;-71
2021/11/03 07:36:52;;;;;;;;;;;4.50;99.90;;;;;;8355151;28;19936;-72
2021/11/03 07:40:54;;;;;;;;;;;4.50;99.90;;;;;;8355112;28;19920;-71
2021/11/03 07:44:56;;;;;;;;;;;4.50;99.90;;;;;;8358429;28;19943;-72
2021/11/03 07:48:58;;;;;;;;;;;4.50;99.90;;;;;;8353606;28;19920;-72
2021/11/03 07:52:59;;;;;;;;;;;4.50;99.90;;;;;;8359567;28;19939;-72
2021/11/03 07:57:02;;;;;;;;;;;4.50;99.90;;;;;;8356468;28;19924;-72
2021/11/03 08:01:05;;;;;;;;;;;4.60;99.90;;;;;;8349716;28;19921;-71
2021/11/03 08:05:07;;;;;;;;;;;4.70;99.90;;;;;;8356859;28;19921;-72
2021/11/03 08:09:09;;;;;;;;;;;4.70;99.90;;;;;;8359046;28;19920;-72
2021/11/03 08:13:17;;;;;;;;;;;4.80;99.90;;;;;;8351371;28;19936;-72
2021/11/03 08:17:21;;;;;;;;;;;4.80;99.90;;;;;;8377524;28;19931;-71
2021/11/03 08:21:26;;;;;;;;;;;4.90;99.90;;;;;;8350990;28;19920;-72
2021/11/03 08:25:28;;;;;;;;;;;5.00;99.90;;;;;;8363494;28;19920;-72
2021/11/03 08:29:30;;;;;;;;;;;5.00;99.90;;;;;;8372628;28;19925;-71
2021/11/03 08:33:34;;;;;;;;;;;5.00;99.90;;;;;;8357207;28;19920;-71
2021/11/03 08:37:38;;;;;;;;;;;5.10;99.90;;;;;;8357074;28;20332;-72
2021/11/03 08:41:39;;;;;;;;;;;5.20;99.90;;;;;;8343484;28;19928;-72
2021/11/03 08:45:41;;;;;;;;;;;5.20;99.90;;;;;;8347040;28;19928;-72
2021/11/03 08:49:43;;;;;;;;;;;5.30;99.90;;;;;;8390926;28;19921;-72
2021/11/03 08:53:45;;;;;;;;;;;5.50;99.90;;;;;;8350612;28;19975;-72
2021/11/03 08:57:46;;;;;;;;;;;5.60;99.90;;;;;;8349759;28;19925;-72
2021/11/03 09:01:49;;;;;;;;;;;5.70;99.90;;;;;;8345076;28;19921;-71
2021/11/03 09:05:51;;;;;;;;;;;5.80;99.90;;;;;;8342306;28;19921;-72
2021/11/03 09:09:53;;;;;;;;;;;5.90;99.90;;;;;;8347381;28;19932;-71
2021/11/03 09:13:55;;;;;;;;;;;6.10;99.90;;;;;;8358161;28;19921;-71
2021/11/03 09:17:56;;;;;;;;;;;6.20;99.90;;;;;;8346536;28;20296;-71
2021/11/03 09:21:58;;;;;;;;;;;6.30;99.90;;;;;;8340990;28;19935;-71
2021/11/03 09:26:00;;;;;;;;;;;6.40;99.90;;;;;;8341341;28;19925;-72
2021/11/03 09:30:03;;;;;;;;;;;6.50;99.90;;;;;;8355134;28;19921;-71
2021/11/03 09:34:05;;;;;;;;;;;6.60;99.90;;;;;;8347939;28;19929;-71
2021/11/03 09:38:08;;;;;;;;;;;6.60;99.90;;;;;;8355148;28;19925;-72
2021/11/03 09:42:12;;;;;;;;;;;6.60;99.90;;;;;;8356357;28;19928;-71
2021/11/03 09:46:14;;;;;;;;;;;6.60;99.90;;;;;;8362973;28;19931;-72
2021/11/03 09:50:19;;;;;;;;;;;6.60;99.90;;;;;;8361035;28;19951;-71
2021/11/03 09:54:25;;;;;;;;;;;6.60;99.90;;;;;;8362841;28;19936;-72
2021/11/03 09:58:47;;;;;;;;;;;6.60;99.90;;;;;;8359957;28;19932;-71
2021/11/03 10:03:07;;;;;;;;;;;6.60;99.90;;;;;;8362872;28;19925;-71
2021/11/03 10:07:20;;;;;;;;;;;6.60;99.90;;;;;;8353358;28;19927;-72
2021/11/03 10:11:24;;;;;;;;;;;6.50;99.90;;;;;;8359834;28;19920;-72
2021/11/03 10:15:28;;;;;;;;;;;6.60;99.90;;;;;;8373903;28;19962;-71
2021/11/03 10:19:36;;;;;;;;;;;6.60;99.90;;;;;;8364822;28;19932;-72
2021/11/03 10:23:38;;;;;;;;;;;6.70;99.90;;;;;;8365033;28;19920;-71
2021/11/03 10:27:50;;;;;;;;;;;6.80;99.90;;;;;;8356265;28;19932;-71
2021/11/03 10:31:55;;;;;;;;;;;6.80;99.90;;;;;;8364388;28;19929;-72
2021/11/03 10:36:18;;;;;;;;;;;6.80;99.90;;;;;;8363824;28;19929;-73
2021/11/03 10:40:22;;;;;;;;;;;6.90;99.90;;;;;;8344354;28;20368;-72
2021/11/03 10:44:28;;;;;;;;;;;7.00;99.90;;;;;;8343835;28;19960;-72
2021/11/03 10:48:30;;;;;;;;;;;7.00;99.90;;;;;;8344264;28;20303;-72
2021/11/03 10:52:32;;;;;;;;;;;7.10;99.90;;;;;;8347921;28;19920;-72
2021/11/03 10:56:35;;;;;;;;;;;7.20;99.90;;;;;;8352559;28;19921;-73
2021/11/03 11:00:38;;;;;;;;;;;7.30;99.90;;;;;;8354646;28;19955;-72
2021/11/03 11:04:41;;;;;;;;;;;7.40;99.90;;;;;;8360233;28;19932;-72
2021/11/03 11:09:06;;;;;;;;;;;7.40;99.90;;;;;;8354853;28;19937;-72
2021/11/03 11:13:15;;;;;;;;;;;7.40;99.90;;;;;;8361919;28;20299;-72
2021/11/03 11:17:22;;;;;;;;;;;7.40;99.90;;;;;;8381687;28;19928;-73
2021/11/03 11:21:26;;;;;;;;;;;7.40;99.90;;;;;;8348669;28;19921;-72
2021/11/03 11:25:44;;;;;;;;;;;7.50;99.90;;;;;;8356418;28;19928;-73
2021/11/03 11:29:56;;;;;;;;;;;7.60;99.90;;;;;;8357156;28;19928;-71
2021/11/03 11:34:02;;;;;;;;;;;7.60;99.90;;;;;;8356328;28;19921;-73
2021/11/03 11:38:16;;;;;;;;;;;7.70;99.90;;;;;;8362497;28;19978;-72
2021/11/03 11:42:39;;;;;;;;;;;7.70;99.90;;;;;;8351163;28;19921;-72
2021/11/03 11:46:43;;;;;;;;;;;7.80;99.90;;;;;;8353789;28;19971;-71
2021/11/03 11:50:47;;;;;;;;;;;7.90;99.90;;;;;;8358470;28;19921;-72
2021/11/03 11:55:13;;;;;;;;;;;8.00;99.90;;;;;;8361376;28;19996;-72
2021/11/03 11:59:20;;;;;;;;;;;8.00;99.90;;;;;;8359851;28;19982;-72
2021/11/03 12:03:27;;;;;;;;;;;8.10;99.90;;;;;;8359970;28;19921;-72
2021/11/03 12:07:39;;;;;;;;;;;8.20;99.90;;;;;;8353204;28;20426;-72
2021/11/03 12:11:57;;;;;;;;;;;8.30;99.90;;;;;;8362231;28;19924;-72
2021/11/03 12:16:19;;;;;;;;;;;8.40;99.90;;;;;;8357369;28;19921;-72
2021/11/03 12:20:23;;;;;;;;;;;8.40;99.90;;;;;;8344662;28;19925;-72
2021/11/03 12:24:39;;;;;;;;;;;8.50;99.90;;;;;;8356333;28;20264;-72
2021/11/03 12:28:46;;;;;;;;;;;8.60;99.90;;;;;;8352407;28;19928;-71
2021/11/03 12:32:47;;;;;;;;;;;8.60;99.90;;;;;;8355695;28;19921;-72
2021/11/03 12:36:49;;;;;;;;;;;8.70;99.90;;;;;;8354541;28;19921;-73
2021/11/03 12:40:52;;;;;;;;;;;8.80;99.90;;;;;;8350734;28;19978;-72
2021/11/03 12:44:57;;;;;;;;;;;8.90;99.90;;;;;;8363189;28;19921;-73
2021/11/03 12:48:59;;;;;;;;;;;8.90;99.90;;;;;;8346100;28;19936;-72
2021/11/03 12:53:19;;;;;;;;;;;9.00;99.90;;;;;;8369603;28;19925;-72
2021/11/03 12:57:22;;;;;;;;;;;9.10;99.90;;;;;;8376001;28;19931;-71
2021/11/03 13:01:24;;;;;;;;;;;9.10;99.90;;;;;;8366457;28;20359;-71
2021/11/03 13:05:31;;;;;;;;;;;9.20;99.90;;;;;;8356283;28;20340;-72
2021/11/03 13:09:54;;;;;;;;;;;9.30;99.90;;;;;;8346704;28;20407;-72
2021/11/03 13:13:58;;;;;;;;;;;9.30;99.90;;;;;;8380856;28;20331;-72
2021/11/03 13:18:16;;;;;;;;;;;9.30;99.90;;;;;;8361729;28;19946;-72
2021/11/03 13:22:27;;;;;;;;;;;9.30;99.90;;;;;;8358920;28;20376;-71
2021/11/03 13:26:31;;;;;;;;;;;9.30;99.90;;;;;;8364720;28;19965;-71
2021/11/03 13:30:34;;;;;;;;;;;9.30;99.90;;;;;;8361154;28;19943;-71
2021/11/03 13:34:50;;;;;;;;;;;9.30;99.90;;;;;;8362454;28;20250;-71
2021/11/03 13:38:54;;;;;;;;;;;9.30;99.90;;;;;;8362293;28;19921;-72
2021/11/03 13:42:55;;;;;;;;;;;9.30;99.90;;;;;;8369949;28;19920;-72
2021/11/03 13:47:00;;;;;;;;;;;9.30;99.90;;;;;;8364032;28;20364;-72
2021/11/03 13:51:12;;;;;;;;;;;9.30;99.90;;;;;;8362081;28;19935;-72
2021/11/03 13:55:16;;;;;;;;;;;9.40;99.90;;;;;;8356865;28;20364;-72
2021/11/03 13:59:22;;;;;;;;;;;9.40;99.90;;;;;;8359447;28;19974;-71
2021/11/03 14:03:30;;;;;;;;;;;9.50;99.90;;;;;;8365246;28;19920;-71
2021/11/03 14:07:40;;;;;;;;;;;9.50;99.90;;;;;;8362028;28;20012;-71
2021/11/03 14:11:43;;;;;;;;;;;9.40;99.90;;;;;;8358868;28;19924;-72
2021/11/03 14:15:46;;;;;;;;;;;9.40;99.90;;;;;;8364087;28;19998;-71
2021/11/03 14:19:53;;;;;;;;;;;9.40;99.90;;;;;;8361952;28;19928;-71
2021/11/03 14:23:55;;;;;;;;;;;9.40;99.90;;;;;;8362869;28;19932;-72
2021/11/03 14:28:00;;;;;;;32.50;17.02;;;9.50;99.90;;;;;;8375255;28;19927;-72
2021/11/03 14:32:03;;;;;;;;;;;9.60;99.90;;;;;;8367591;28;19935;-71
2021/11/03 14:36:06;;;;;;;;;;;9.80;99.90;;;;;;8359146;28;19932;-72
2021/11/03 14:40:10;;;;;;;;;;;9.90;99.90;;;;;;8358224;28;19979;-71
2021/11/03 14:44:13;;;;;;;;;;;10.10;99.90;;;;;;8359450;28;20249;-73
2021/11/03 14:48:16;;;;;;;;;;;10.20;99.90;;;;;;8359607;28;19929;-72
2021/11/03 14:52:25;;;;;;;;;;;10.20;99.90;;;;;;8355077;28;19925;-71
2021/11/03 14:56:26;;;;;;;;;;;10.20;99.90;;;;;;8369521;28;19925;-72
2021/11/03 15:00:29;;;;;;;;;;;10.20;99.90;;;;;;8359776;28;19931;-72
2021/11/03 15:04:35;;;;;;;;;;;10.10;99.90;;;;;;8358990;28;19932;-71
2021/11/03 15:08:38;;;;;;;;;;;10.10;99.90;;;;;;8365098;28;19925;-71
2021/11/03 15:12:40;;;;;;;;;;;10.00;99.90;;;;;;8361692;28;19924;-72
2021/11/03 15:16:42;;;;;;;;;;;10.00;99.90;;;;;;8366209;28;20435;-71
2021/11/03 15:20:44;;;;;;;;;;;9.90;99.90;;;;;;8352556;28;19947;-71
2021/11/03 15:24:46;;;;;;;;;;;9.80;99.90;;;;;;8362417;28;20049;-73
2021/11/03 15:28:48;;;;;;;28.20;15.60;;;9.80;99.90;;;;;;8344809;28;19929;-71
2021/11/03 15:32:51;;;;;;;;;;;9.70;99.90;;;;;;8357719;28;20058;-72
2021/11/03 15:36:52;;;;;;;;;;;9.70;99.90;;;;;;8341107;28;19928;-72
2021/11/03 15:40:55;;;;;;;;;;;9.60;99.90;;;;;;8323023;28;19921;-72
2021/11/03 15:44:57;;;;;;;;;;;9.60;99.90;;;;;;8327318;28;19947;-72
2021/11/03 15:49:01;;;;;;;;;;;9.50;99.90;;;;;;8327865;28;19944;-72
2021/11/03 15:53:10;;;;;;;;;;;9.40;99.90;;;;;;8340881;28;19929;-72
2021/11/03 15:57:12;;;;;;;;;;;9.40;99.90;;;;;;8328311;28;19932;-71
2021/11/03 16:01:16;;;;;;;;;;;9.30;99.90;;;;;;8323737;28;19962;-72
2021/11/03 16:05:36;;;;;;;;;;;9.30;99.90;;;;;;8323649;28;20288;-72
2021/11/03 16:09:37;;;;;;;;;;;9.20;99.90;;;;;;8325844;28;19959;-71
2021/11/03 16:13:39;;;;;;;;;;;9.10;99.90;;;;;;8325619;28;20008;-72
2021/11/03 16:17:41;;;;;;;;;;;9.10;99.90;;;;;;8341406;28;19928;-72
2021/11/03 16:21:43;;;;;;;;;;;9.10;99.90;;;;;;8340160;28;20324;-72
2021/11/03 16:25:46;;;;;;;;;;;9.00;99.90;;;;;;8319880;28;19921;-71
2021/11/03 16:29:48;;;;;;;;;;;9.00;99.90;;;;;;8326362;28;19928;-71
2021/11/03 16:33:50;;;;;;;;;;;8.90;99.90;;;;;;8342644;28;19931;-72
2021/11/03 16:37:52;;;;;;;;;;;8.90;99.90;;;;;;8326173;28;19966;-73
2021/11/03 16:41:57;;;;;;;;;;;8.90;99.90;;;;;;8320124;28;19944;-72
2021/11/03 16:45:58;;;;;;;;;;;8.90;99.90;;;;;;8337273;28;20337;-72
2021/11/03 16:50:15;;;;;;;;;;;8.90;99.90;;;;;;8336702;28;19967;-71
2021/11/03 16:54:19;;;;;;;;;;;8.80;99.90;;;;;;8344128;28;19921;-72
2021/11/03 16:58:20;;;;;;;;;;;8.80;99.90;;;;;;8324190;28;19921;-72
2021/11/03 17:02:22;;;;;;;;;;;8.70;99.90;;;;;;8328785;28;19933;-72
2021/11/03 17:06:31;;;;;;;;;;;8.70;99.90;;;;;;8355487;28;20063;-72
2021/11/03 17:10:33;;;;;;;;;;;8.70;99.90;;;;;;8340600;28;20339;-72
2021/11/03 17:14:38;;;;;;;;;;;8.70;99.90;;;;;;8333945;28;19932;-72
2021/11/03 17:18:40;;;;;;;;;;;8.60;99.90;;;;;;8374954;28;19936;-72
2021/11/03 17:22:46;;;;;;;;;;;8.60;99.90;;;;;;8341119;28;20358;-72
2021/11/03 17:26:53;;;;;;;;;;;8.60;99.90;;;;;;8328713;28;19979;-72
2021/11/03 17:30:55;;;;;;;;;;;8.60;99.90;;;;;;8354323;28;19936;-72
2021/11/03 17:34:58;;;;;;;;;;;8.70;99.90;;;;;;8321750;28;19975;-72
2021/11/03 17:38:59;;;;;;;;;;;8.60;99.90;;;;;;8335458;28;19929;-72
2021/11/03 17:43:06;;;;;;;;;;;8.60;99.90;;;;;;8332021;28;20353;-73
2021/11/03 17:47:10;;;;;;;;;;;8.60;99.90;;;;;;8328438;28;20357;-72
2021/11/03 17:51:12;;;;;;;;;;;8.60;99.90;;;;;;8319312;28;19925;-72
2021/11/03 17:55:13;;;;;;;;;;;8.50;99.90;;;;;;8322640;28;19925;-72
2021/11/03 17:59:17;;;;;;;;;;;8.50;99.90;;;;;;8340180;28;19921;-72
2021/11/03 18:03:20;;;;;;;;;;;8.50;99.90;;;;;;8326634;28;19925;-72
2021/11/03 18:07:22;;;;;;;;;;;8.50;99.90;;;;;;8344728;28;19966;-72
2021/11/03 18:11:25;;;;;;;;;;;8.50;99.90;;;;;;8339766;28;19998;-71
2021/11/03 18:15:28;;;;;;;;;;;8.50;99.90;;;;;;8359761;28;19921;-71
2021/11/03 18:19:31;;;;;;;;;;;8.40;99.90;;;;;;8341493;28;19944;-72
2021/11/03 18:23:33;;;;;;;;;;;8.40;99.90;;;;;;8340410;28;20008;-72
2021/11/03 18:27:35;;;;;;;;;;;8.40;99.90;;;;;;8341526;28;20327;-71
2021/11/03 18:31:37;;;;;;;;;;;8.40;99.90;;;;;;8323127;28;19921;-71
2021/11/03 18:35:39;;;;;;;;;;;8.40;99.90;;;;;;8325365;28;20404;-72
2021/11/03 18:39:42;;;;;;;;;;;8.40;99.90;;;;;;8327167;28;19971;-72
2021/11/03 18:43:44;;;;;;;;;;;8.40;99.90;;;;;;8340380;28;19991;-72
2021/11/03 18:47:46;;;;;;;;;;;8.40;99.90;;;;;;8343260;28;19980;-72
2021/11/03 18:51:59;;;;;;;;;;;8.30;99.90;;;;;;8329325;28;19975;-71
2021/11/03 18:56:02;;;;;;;;;;;8.30;99.90;;;;;;8328378;28;19970;-72
2021/11/03 19:00:06;;;;;;;;;;;8.30;99.90;;;;;;8325297;28;20285;-72
2021/11/03 19:04:08;;;;;;;;;;;8.30;99.90;;;;;;8331663;28;19925;-72
2021/11/03 19:08:20;;;;;;;;;;;8.30;99.90;;;;;;8324171;28;20293;-72
2021/11/03 19:12:24;;;;;;;;;;;8.20;99.90;;;;;;8341325;28;19926;-71
2021/11/03 19:16:26;;;;;;;;;;;8.20;99.90;;;;;;8351280;28;19935;-72
2021/11/03 19:20:28;;;;;;;;;;;8.20;99.90;;;;;;8326297;28;19950;-72
2021/11/03 19:24:33;;;;;;;;;;;8.20;99.90;;;;;;8327704;28;19929;-72
2021/11/03 19:28:35;;;;;;;;;;;8.10;99.90;;;;;;8343424;28;19924;-72
2021/11/03 19:32:37;;;;;;;;;;;8.10;99.90;;;;;;8322451;28;19928;-71
2021/11/03 19:36:40;;;;;;;;;;;8.10;99.90;;;;;;8346678;28;19920;-72
2021/11/03 19:40:42;;;;;;;;;;;8.10;99.90;;;;;;8324948;28;19921;-72
2021/11/03 19:44:46;;;;;;;;;;;8.10;99.90;;;;;;8322362;28;19998;-72
2021/11/03 19:48:51;;;;;;;;;;;8.10;99.90;;;;;;8339390;28;20014;-72
2021/11/03 19:52:53;;;;;;;;;;;8.20;99.90;;;;;;8322133;28;19995;-72
2021/11/03 19:56:57;;;;;;;;;;;8.10;99.90;;;;;;8329598;28;19929;-72
2021/11/03 20:00:59;;;;;;;;;;;8.10;99.90;;;;;;8339035;28;19921;-72
2021/11/03 20:05:01;;;;;;;;;;;8.10;99.90;;;;;;8323465;28;19925;-71
2021/11/03 20:09:03;;;;;;;;;;;8.10;99.90;;;;;;8339622;28;19975;-72
2021/11/03 20:13:06;;;;;;;;;;;8.10;99.90;;;;;;8328819;28;20341;-71
2021/11/03 20:17:19;;;;;;;;;;;8.00;99.90;;;;;;8322563;28;19936;-72
2021/11/03 20:21:26;;;;;;;;;;;8.10;99.90;;;;;;8353503;28;19925;-72
2021/11/03 20:25:30;;;;;;;;;;;8.00;99.90;;;;;;8323379;28;20479;-73
2021/11/03 20:29:33;;;;;;;;;;;8.00;99.90;;;;;;8338879;28;19931;-72
2021/11/03 20:33:37;;;;;;;;;;;8.10;99.90;;;;;;8338632;28;19998;-72
2021/11/03 20:37:38;;;;;;;;;;;8.10;99.90;;;;;;8323385;28;20320;-72
2021/11/03 20:41:40;;;;;;;;;;;8.00;99.90;;;;;;8323813;28;19924;-72
2021/11/03 20:45:43;;;;;;;;;;;8.00;99.90;;;;;;8322487;28;19925;-72
2021/11/03 20:49:45;;;;;;;;;;;8.00;99.90;;;;;;8335343;28;19971;-72
2021/11/03 20:53:47;;;;;;;;;;;8.00;99.90;;;;;;8332044;28;20000;-71
2021/11/03 20:57:49;;;;;;;;;;;8.00;99.90;;;;;;8338862;28;19925;-72
2021/11/03 21:01:50;;;;;;;;;;;8.00;99.90;;;;;;8342449;28;19978;-72
2021/11/03 21:05:52;;;;;;;;;;;7.90;99.90;;;;;;8336573;28;19921;-72
2021/11/03 21:09:54;;;;;;;;;;;7.90;99.90;;;;;;8320474;28;19921;-72
2021/11/03 21:13:55;;;;;;;;;;;7.80;99.90;;;;;;8322250;28;20303;-71
2021/11/03 21:17:57;;;;;;;;;;;7.80;99.90;;;;;;8323270;28;19963;-72
2021/11/03 21:21:59;;;;;;;;;;;7.80;99.90;;;;;;8319201;28;19928;-72
2021/11/03 21:26:01;;;;;;;;;;;7.80;99.90;;;;;;8324306;28;20380;-72
2021/11/03 21:30:04;;;;;;;;;;;7.80;99.90;;;;;;8337602;28;19929;-71
2021/11/03 21:34:06;;;;;;;;;;;7.80;99.90;;;;;;8326634;28;20012;-72
2021/11/03 21:38:08;;;;;;;;;;;7.70;99.90;;;;;;8345429;28;19929;-72
2021/11/03 21:42:09;;;;;;;;;;;7.70;99.90;;;;;;8331567;28;20314;-71
2021/11/03 21:46:12;;;;;;;;;;;7.70;99.90;;;;;;8329607;28;19932;-72
2021/11/03 21:50:13;;;;;;;;;;;7.70;99.90;;;;;;8326837;28;19995;-73
2021/11/03 21:54:15;;;;;;;;;;;7.70;99.90;;;;;;8331392;28;20660;-72
2021/11/03 21:58:17;;;;;;;;;;;7.70;99.90;;;;;;8341757;28;19970;-72
2021/11/03 22:02:19;;;;;;;;;;;7.60;99.90;;;;;;8338751;28;19924;-73
2021/11/03 22:06:21;;;;;;;;;;;7.60;99.90;;;;;;8365064;28;19921;-72
2021/11/03 22:10:24;;;;;;;;;;;7.60;99.90;;;;;;8353490;28;19921;-73
2021/11/03 22:14:25;;;;;;;;;;;7.50;99.90;;;;;;8360231;28;19924;-72
2021/11/03 22:18:27;;;;;;;;;;;7.50;99.90;;;;;;8350646;28;19921;-72
2021/11/03 22:22:29;;;;;;;;;;;7.50;99.90;;;;;;8370850;28;19921;-72
2021/11/03 22:26:31;;;;;;;;;;;7.50;99.90;;;;;;8397579;28;19933;-72
2021/11/03 22:30:32;;;;;;;;;;;7.40;99.90;;;;;;8353172;28;19998;-72
2021/11/03 22:34:34;;;;;;;;;;;7.40;99.90;;;;;;8358129;28;19920;-71
2021/11/03 22:38:36;;;;;;;;;;;7.40;99.90;;;;;;8353806;28;19925;-72
2021/11/03 22:42:38;;;;;;;;;;;7.40;99.90;;;;;;8357739;28;19982;-71
2021/11/03 22:46:39;;;;;;;;;;;7.30;99.90;;;;;;8394354;28;19927;-71
2021/11/03 22:50:41;;;;;;;;;;;7.30;99.90;;;;;;8394139;28;20054;-71
2021/11/03 22:54:43;;;;;;;;;;;7.30;99.90;;;;;;8374197;28;19920;-71
2021/11/03 22:58:45;;;;;;;;;;;7.30;99.90;;;;;;8347274;28;19947;-71
2021/11/03 23:02:47;;;;;;;;;;;7.20;99.90;;;;;;8353964;28;19928;-72
2021/11/03 23:06:48;;;;;;;;;;;7.30;99.90;;;;;;8357881;28;20325;-72
2021/11/03 23:10:50;;;;;;;;;;;7.30;99.90;;;;;;8351678;28;19921;-71
2021/11/03 23:14:52;;;;;;;;;;;7.30;99.90;;;;;;8353768;28;20369;-71
2021/11/03 23:18:54;;;;;;;;;;;7.30;99.90;;;;;;8356531;28;20372;-72
2021/11/03 23:22:55;;;;;;;;;;;7.20;99.90;;;;;;8345771;28;19925;-72
2021/11/03 23:26:58;;;;;;;;;;;7.20;99.90;;;;;;8351031;28;19921;-72
2021/11/03 23:31:00;;;;;;;;;;;7.10;99.90;;;;;;8350640;28;20378;-72
2021/11/03 23:35:02;;;;;;;;;;;7.20;99.90;;;;;;8353195;28;19996;-71
2021/11/03 23:39:04;;;;;;;;;;;7.20;99.90;;;;;;8351068;28;19920;-71
2021/11/03 23:43:06;;;;;;;;;;;7.20;99.90;;;;;;8358830;28;19964;-73
2021/11/03 23:47:07;;;;;;;;;;;7.20;99.90;;;;;;8346114;28;19921;-72
2021/11/03 23:51:09;;;;;;;;;;;7.20;99.90;;;;;;8360486;28;19940;-72
2021/11/03 23:55:11;;;;;;;;;;;7.20;99.90;;;;;;8357751;28;19928;-71
2021/11/03 23:59:13;;;;;;;;;;;7.20;99.90;;;;;;8350675;28;19975;-72
